createdAt,value
2022-10-12T00:02:13.286Z,15
2022-10-12T00:07:28.148Z,14
2022-10-12T00:12:39.224Z,14
2022-10-12T00:17:50.994Z,14
2022-10-12T00:23:03.102Z,14
2022-10-12T00:28:15.051Z,14
2022-10-12T00:33:26.987Z,14
2022-10-12T00:38:38.828Z,14
2022-10-12T00:43:59.172Z,14
2022-10-12T00:49:13.259Z,14
2022-10-12T00:54:25.063Z,14
2022-10-12T00:59:36.759Z,14
2022-10-12T01:04:48.709Z,14
2022-10-12T01:10:00.598Z,14
2022-10-12T01:15:12.328Z,14
2022-10-12T01:20:24.088Z,14
2022-10-12T01:25:35.821Z,14
2022-10-12T01:30:48.090Z,14
2022-10-12T01:36:00.148Z,13
2022-10-12T01:41:12.028Z,14
2022-10-12T01:46:23.756Z,14
2022-10-12T01:51:35.420Z,14
2022-10-12T01:56:47.270Z,14
2022-10-12T02:01:58.886Z,13
2022-10-12T02:07:10.590Z,13
2022-10-12T02:12:22.956Z,13
2022-10-12T02:17:34.524Z,13
2022-10-12T02:22:46.900Z,13
2022-10-12T02:27:58.558Z,13
2022-10-12T02:33:10.408Z,13
2022-10-12T02:38:22.142Z,13
2022-10-12T02:43:33.836Z,13
2022-10-12T02:48:45.577Z,13
2022-10-12T02:53:57.209Z,13
2022-10-12T02:59:09.264Z,13
2022-10-12T03:04:21.053Z,13
2022-10-12T03:09:32.732Z,13
2022-10-12T03:14:44.610Z,13
2022-10-12T03:19:56.461Z,13
2022-10-12T03:25:08.244Z,13
2022-10-12T03:30:20.138Z,13
2022-10-12T03:35:31.904Z,13
2022-10-12T03:40:43.532Z,13
2022-10-12T03:45:55.199Z,13
2022-10-12T03:51:06.955Z,13
2022-10-12T03:56:18.496Z,12
2022-10-12T04:01:30.551Z,13
2022-10-12T04:06:42.338Z,13
2022-10-12T04:11:54.452Z,13
2022-10-12T04:17:06.314Z,13
2022-10-12T04:22:18.171Z,12
2022-10-12T04:27:29.998Z,13
2022-10-12T04:32:41.954Z,13
2022-10-12T04:37:53.808Z,13
2022-10-12T04:43:05.679Z,13
2022-10-12T04:48:17.432Z,13
2022-10-12T04:53:29.178Z,12
2022-10-12T04:58:41.008Z,12
2022-10-12T05:03:52.833Z,12
2022-10-12T05:09:04.460Z,12
2022-10-12T05:14:16.119Z,12
2022-10-12T05:19:28.035Z,12
2022-10-12T05:24:39.771Z,12
2022-10-12T05:29:51.530Z,12
2022-10-12T05:35:03.345Z,12
2022-10-12T05:40:15.219Z,12
2022-10-12T05:45:27.149Z,12
2022-10-12T05:50:39.015Z,12
2022-10-12T05:55:50.729Z,12
2022-10-12T06:01:02.560Z,13
2022-10-12T06:06:14.487Z,13
2022-10-12T06:11:26.336Z,13
2022-10-12T06:16:38.385Z,13
2022-10-12T06:21:50.498Z,13
2022-10-12T06:27:02.354Z,13
2022-10-12T06:32:14.316Z,13
2022-10-12T06:37:50.759Z,13
2022-10-12T06:42:59.182Z,13
2022-10-12T06:48:19.063Z,13
2022-10-12T06:53:34.486Z,13
2022-10-12T06:58:46.278Z,13
2022-10-12T07:04:01.452Z,13
2022-10-12T07:09:12.209Z,14
2022-10-12T07:14:24.255Z,14
2022-10-12T07:19:36.095Z,14
2022-10-12T07:24:48.206Z,14
2022-10-12T07:30:00.119Z,14
2022-10-12T07:35:12.033Z,14
2022-10-12T07:40:24.130Z,14
2022-10-12T07:45:36.583Z,15
2022-10-12T07:50:48.483Z,15
2022-10-12T07:56:00.488Z,15
2022-10-12T08:01:12.440Z,15
2022-10-12T08:06:24.572Z,15
2022-10-12T08:11:36.678Z,15
2022-10-12T08:16:48.902Z,16
2022-10-12T08:22:00.934Z,16
2022-10-12T08:27:13.145Z,16
2022-10-12T08:32:25.316Z,16
2022-10-12T08:37:38.559Z,17
2022-10-12T08:42:51.479Z,17
2022-10-12T08:48:03.496Z,17
2022-10-12T08:53:15.803Z,17
2022-10-12T08:58:28.207Z,18
2022-10-12T09:03:40.458Z,18
2022-10-12T09:08:52.749Z,18
2022-10-12T09:14:05.094Z,18
2022-10-12T09:19:17.384Z,19
2022-10-12T09:24:29.551Z,19
2022-10-12T09:29:42.083Z,19
2022-10-12T09:34:54.302Z,19
2022-10-12T09:40:06.501Z,20
2022-10-12T09:45:19.223Z,20
2022-10-12T09:50:31.499Z,20
2022-10-12T09:55:43.797Z,20
2022-10-12T10:00:56.168Z,20
2022-10-12T10:06:08.350Z,21
2022-10-12T10:11:20.521Z,21
2022-10-12T10:16:33.011Z,21
2022-10-12T10:21:45.229Z,21
2022-10-12T10:26:57.559Z,22
2022-10-12T10:32:10.043Z,22
2022-10-12T10:37:22.233Z,22
2022-10-12T10:42:34.632Z,22
2022-10-12T10:47:46.831Z,22
2022-10-12T10:52:59.266Z,22
2022-10-12T10:58:11.514Z,23
2022-10-12T11:03:24.175Z,23
2022-10-12T11:08:37.397Z,24
2022-10-12T11:13:51.478Z,26
2022-10-12T11:19:06.105Z,28
2022-10-12T11:24:20.140Z,30
2022-10-12T11:29:33.600Z,30
2022-10-12T11:45:08.368Z,31
2022-10-12T11:50:20.772Z,31
2022-10-12T12:00:43.826Z,30
2022-10-12T12:11:05.974Z,30
2022-10-12T12:21:28.431Z,29
2022-10-12T12:26:41.037Z,29
2022-10-12T12:42:13.446Z,28
2022-10-12T12:47:46.997Z,27
2022-10-12T12:52:55.508Z,27
2022-10-12T12:58:07.845Z,27
2022-10-12T13:03:19.878Z,27
2022-10-12T13:08:31.906Z,27
2022-10-12T13:13:44.076Z,27
2022-10-12T13:24:05.763Z,25
2022-10-12T13:29:17.923Z,25
2022-10-12T13:34:30.241Z,25
2022-10-12T13:44:52.577Z,25
2022-10-12T13:50:04.732Z,24
2022-10-12T14:00:27.617Z,24
2022-10-12T14:05:39.808Z,24
2022-10-12T14:16:02.087Z,24
2022-10-12T14:21:14.167Z,24
2022-10-12T14:26:26.437Z,24
2022-10-12T14:31:39.000Z,24
2022-10-12T14:36:51.070Z,24
2022-10-12T14:42:03.248Z,24
2022-10-12T14:47:15.533Z,23
2022-10-12T14:52:27.424Z,23
2022-10-12T15:02:49.917Z,23
2022-10-12T15:08:02.198Z,23
2022-10-12T15:13:14.292Z,23
2022-10-12T15:18:26.615Z,23
2022-10-12T15:23:38.481Z,23
2022-10-12T15:28:50.844Z,22
2022-10-12T15:34:03.029Z,22
2022-10-12T15:39:15.007Z,22
2022-10-12T15:44:27.233Z,22
2022-10-12T15:49:39.389Z,22
2022-10-12T15:54:51.317Z,21
2022-10-12T16:00:03.283Z,21
2022-10-12T16:05:15.267Z,21
2022-10-12T16:10:27.432Z,21
2022-10-12T16:15:39.636Z,21
2022-10-12T16:20:54.658Z,21
2022-10-12T16:26:05.798Z,21
2022-10-12T16:31:18.035Z,20
2022-10-12T16:36:30.011Z,20
2022-10-12T16:41:41.995Z,20
2022-10-12T16:46:54.006Z,20
2022-10-12T16:52:06.110Z,20
2022-10-12T16:57:18.109Z,20
2022-10-12T17:02:30.217Z,20
2022-10-12T17:07:42.248Z,19
2022-10-12T17:12:54.373Z,20
2022-10-12T17:18:06.475Z,19
2022-10-12T17:23:18.865Z,20
2022-10-12T17:28:31.330Z,20
2022-10-12T17:33:43.484Z,20
2022-10-12T17:38:55.737Z,19
2022-10-12T17:44:07.857Z,19
2022-10-12T17:49:25.476Z,19
2022-10-12T17:54:40.080Z,19
2022-10-12T17:59:52.193Z,19
2022-10-12T18:05:04.366Z,19
2022-10-12T18:10:16.648Z,19
2022-10-12T18:15:28.864Z,19
2022-10-12T18:20:40.809Z,18
2022-10-12T18:25:52.953Z,19
2022-10-12T18:31:04.948Z,18
2022-10-12T18:36:17.181Z,18
2022-10-12T18:41:47.830Z,18
2022-10-12T18:46:56.550Z,18
2022-10-12T18:52:08.591Z,18
2022-10-12T18:57:21.242Z,18
2022-10-12T19:02:34.341Z,18
2022-10-12T19:07:52.975Z,18
2022-10-12T19:13:08.917Z,18
2022-10-12T19:18:28.661Z,18
2022-10-12T19:23:45.201Z,18
2022-10-12T19:28:57.506Z,18
2022-10-12T19:34:09.611Z,18
2022-10-12T19:39:24.504Z,18
2022-10-12T19:44:40.024Z,18
2022-10-12T19:49:52.115Z,18
2022-10-12T19:55:04.346Z,18
2022-10-12T20:00:16.553Z,18
2022-10-12T20:05:28.694Z,18
2022-10-12T20:10:40.604Z,18
2022-10-12T20:15:52.742Z,17
2022-10-12T20:21:04.803Z,17
2022-10-12T20:26:27.715Z,17
2022-10-12T20:31:40.200Z,17
2022-10-12T20:36:52.422Z,17
2022-10-12T20:42:04.524Z,17
2022-10-12T20:47:16.962Z,17
2022-10-12T20:52:29.282Z,17
2022-10-12T20:57:41.292Z,17
2022-10-12T21:02:53.760Z,17
2022-10-12T21:08:05.730Z,17
2022-10-12T21:13:17.629Z,17
2022-10-12T21:18:38.623Z,17
2022-10-12T21:23:48.627Z,17
2022-10-12T21:29:00.571Z,17
2022-10-12T21:34:12.843Z,17
2022-10-12T21:39:24.834Z,17
2022-10-12T21:44:36.907Z,17
2022-10-12T21:49:48.985Z,17
2022-10-12T21:55:01.077Z,17
2022-10-12T22:00:12.970Z,17
2022-10-12T22:05:25.105Z,17
2022-10-12T22:10:37.133Z,17
2022-10-12T22:15:49.146Z,17
2022-10-12T22:21:01.260Z,17
2022-10-12T22:26:13.189Z,17
2022-10-12T22:31:25.362Z,17
2022-10-12T22:36:37.463Z,16
2022-10-12T22:41:49.295Z,17
2022-10-12T22:47:01.306Z,16
2022-10-12T22:52:13.441Z,17
2022-10-12T22:57:25.556Z,17
2022-10-12T23:02:37.505Z,17
2022-10-12T23:07:49.369Z,16
2022-10-12T23:13:01.545Z,17
2022-10-12T23:18:13.515Z,17
2022-10-12T23:23:25.589Z,17
2022-10-12T23:28:37.718Z,16
2022-10-12T23:33:49.677Z,17
2022-10-12T23:39:01.813Z,17
2022-10-12T23:44:14.267Z,17
2022-10-12T23:49:26.118Z,17
2022-10-12T23:54:38.232Z,16
2022-10-12T23:59:50.184Z,16
